Time;durP1;ratioP1;P1;durP2;ratioP2;P2;SDS_P1;SDS_P2;PMS_P1;PMS_P2;Temp;Humidity;BMP_temperature;BMP_pressure;BME280_temperature;BME280_humidity;BME280_pressure;Samples;Min_cycle;Max_cycle;Signal;HPM_P1;HPM_P2
2023/06/08 00:01:44;;;;;;;13.00;11.80;;;;;;;14.68;100.00;98915.61;109447;1253;59524;-70
2023/06/08 00:04:12;;;;;;;13.50;12.20;;;;;;;14.64;100.00;98913.13;109446;1253;59023;-69
2023/06/08 00:06:40;;;;;;;13.30;12.00;;;;;;;14.61;100.00;98914.10;109473;1253;65739;-71
2023/06/08 00:09:08;;;;;;;14.70;13.40;;;;;;;14.57;100.00;98915.50;109481;1253;58939;-69
2023/06/08 00:11:35;;;;;;;12.30;11.10;;;;;;;14.55;100.00;98914.45;109471;1253;64081;-69
2023/06/08 00:14:01;;;;;;;12.40;11.30;;;;;;;14.52;100.00;98913.44;109452;1253;58953;-70
2023/06/08 00:16:28;;;;;;;12.60;11.40;;;;;;;14.48;100.00;98911.02;109458;1253;58972;-69
2023/06/08 00:18:56;;;;;;;14.30;13.00;;;;;;;14.45;100.00;98912.76;109043;1253;64513;-69
2023/06/08 00:21:23;;;;;;;15.30;14.00;;;;;;;14.42;100.00;98913.73;109220;1253;60375;-70
2023/06/08 00:23:50;;;;;;;12.80;11.60;;;;;;;14.40;100.00;98919.41;109442;1253;64069;-70
2023/06/08 00:26:17;;;;;;;13.80;12.50;;;;;;;14.37;100.00;98915.05;109168;1253;59070;-69
2023/06/08 00:28:47;;;;;;;19.70;17.80;;;;;;;14.33;100.00;98914.42;109162;1253;59092;-70
2023/06/08 00:31:15;;;;;;;22.70;18.90;;;;;;;14.32;100.00;98918.31;109031;1253;64572;-71
2023/06/08 00:33:42;;;;;;;22.00;19.90;;;;;;;14.30;100.00;98921.52;109217;1253;59434;-70
2023/06/08 00:36:09;;;;;;;22.40;20.40;;;;;;;14.27;100.00;98922.07;109264;1253;62639;-69
2023/06/08 00:38:36;;;;;;;21.30;19.30;;;;;;;14.25;100.00;98923.52;109140;1253;59151;-69
2023/06/08 00:41:02;;;;;;;21.70;19.50;;;;;;;14.23;100.00;98922.27;109431;1254;58886;-70
2023/06/08 00:43:29;;;;;;;22.90;20.70;;;;;;;14.23;100.00;98917.80;109182;1253;65789;-71
2023/06/08 00:45:56;;;;;;;22.30;20.10;;;;;;;14.24;100.00;98916.81;109504;1253;60132;-70
2023/06/08 00:48:26;;;;;;;27.90;25.30;;;;;;;14.24;100.00;98920.73;109418;1254;62523;-70
2023/06/08 00:50:55;;;;;;;31.50;28.30;;;;;;;14.25;100.00;98917.81;109427;1253;58954;-70
2023/06/08 00:53:24;;;;;;;30.00;27.00;;;;;;;14.26;100.00;98913.95;109485;1253;59260;-70
2023/06/08 00:55:51;;;;;;;29.50;26.60;;;;;;;14.26;100.00;98908.98;109445;1254;65128;-68
2023/06/08 00:58:18;;;;;;;29.40;26.60;;;;;;;14.25;100.00;98911.95;109419;1253;59804;-70
2023/06/08 01:00:46;;;;;;;23.90;21.60;;;;;;;14.23;100.00;98913.16;109455;1253;64010;-70
2023/06/08 01:03:16;;;;;;;19.50;17.70;;;;;;;14.19;100.00;98913.28;109431;1253;59321;-71
2023/06/08 01:05:46;;;;;;;23.10;21.10;;;;;;;14.13;100.00;98913.27;109467;1253;59120;-70
2023/06/08 01:08:35;;;;;;;20.20;18.20;;;;;;;14.08;100.00;98910.13;109443;1254;64856;-70
2023/06/08 01:11:29;;;;;;;19.00;17.30;;;;;;;14.02;100.00;98909.53;109073;1254;60281;-69
2023/06/08 01:14:05;;;;;;;19.00;17.20;;;;;;;13.92;100.00;98906.77;109427;1254;62636;-69
2023/06/08 01:16:37;;;;;;;21.30;19.10;;;;;;;13.84;100.00;98904.38;109450;1253;58990;-70
2023/06/08 01:19:10;;;;;;;22.90;20.80;;;;;;;13.80;100.00;98904.37;109424;1254;58988;-70
2023/06/08 01:22:05;;;;;;;23.20;20.90;;;;;;;13.75;100.00;98904.02;109449;1254;64759;-69
2023/06/08 01:24:35;;;;;;;20.50;18.50;;;;;;;13.72;100.00;98901.68;109495;1254;59018;-70
2023/06/08 01:27:06;;;;;;;22.10;20.10;;;;;;;13.68;100.00;98895.72;109434;1254;64228;-70
2023/06/08 01:29:34;;;;;;;23.90;21.70;;;;;;;13.64;100.00;98896.02;109444;1254;59083;-70
2023/06/08 01:32:00;;;;;;;23.70;21.40;;;;;;;13.60;100.00;98899.38;109434;1253;59059;-70
2023/06/08 01:34:28;;;;;;;24.20;21.80;;;;;;;13.55;100.00;98903.53;109214;1253;65702;-70
2023/06/08 01:37:03;;;;;;;23.60;21.20;;;;;;;13.52;100.00;98907.15;109402;1254;59019;-68
2023/06/08 01:39:48;;;;;;;24.30;21.90;;;;;;;13.50;100.00;98906.80;109407;1253;64091;-69
2023/06/08 01:42:18;;;;;;;24.40;22.00;;;;;;;13.49;100.00;98906.70;109396;1254;59041;-71
2023/06/08 01:44:50;;;;;;;;;;;;;;;13.48;100.00;98904.85;109068;1253;59079;-70
2023/06/08 01:47:17;;;;;;;24.20;21.70;;;;;;;13.46;100.00;98907.48;109421;1254;66018;-70
2023/06/08 01:49:45;;;;;;;22.50;20.40;;;;;;;13.45;100.00;98907.97;109436;1253;60001;-70
2023/06/08 01:52:12;;;;;;;22.60;20.40;;;;;;;13.43;100.00;98906.86;109438;1254;65087;-70
2023/06/08 01:54:39;;;;;;;23.00;20.70;;;;;;;13.40;100.00;98904.45;109388;1253;59085;-70
2023/06/08 01:57:06;;;;;;;21.00;19.00;;;;;;;13.35;100.00;98908.52;109422;1253;59014;-70
2023/06/08 01:59:32;;;;;;;21.60;19.50;;;;;;;13.33;100.00;98908.54;109061;1253;66056;-70
2023/06/08 02:01:59;;;;;;;21.30;19.20;;;;;;;13.29;100.00;98911.86;109432;1254;59043;-70
2023/06/08 02:04:25;;;;;;;20.10;18.10;;;;;;;13.26;100.00;98909.61;109422;1254;64368;-70
2023/06/08 02:06:52;;;;;;;17.80;16.00;;;;;;;13.21;100.00;98906.91;109348;1254;58971;-69
2023/06/08 02:09:18;;;;;;;20.60;18.70;;;;;;;13.16;100.00;98907.98;109131;1253;59045;-69
2023/06/08 02:11:45;;;;;;;19.90;18.00;;;;;;;13.13;100.00;98907.02;109407;1253;64874;-70
2023/06/08 02:14:11;;;;;;;20.50;18.50;;;;;;;13.09;100.00;98909.33;109422;1254;58949;-69
2023/06/08 02:16:38;;;;;;;19.10;17.30;;;;;;;13.05;100.00;98912.45;109394;1254;64145;-69
2023/06/08 02:19:05;;;;;;;19.60;17.80;;;;;;;13.04;100.00;98915.23;109364;1254;59040;-70
2023/06/08 02:21:32;;;;;;;19.50;17.70;;;;;;;13.01;100.00;98915.33;109126;1254;59034;-70
2023/06/08 02:23:59;;;;;;;18.70;16.90;;;;;;;12.96;100.00;98917.98;109411;1254;65001;-70
2023/06/08 02:26:25;;;;;;;19.50;17.60;;;;;;;12.93;100.00;98909.34;109432;1254;60033;-70
2023/06/08 02:28:53;;;;;;;18.90;17.10;;;;;;;12.90;100.00;98905.77;109431;1254;64132;-71
2023/06/08 02:31:19;;;;;;;20.10;18.20;;;;;;;12.89;100.00;98903.92;109381;1254;59028;-70
2023/06/08 02:33:46;;;;;;;19.00;17.10;;;;;;;12.87;100.00;98903.20;109388;1254;58991;-70
2023/06/08 02:36:12;;;;;;;19.30;17.60;;;;;;;12.86;100.00;98905.63;109435;1253;59472;-70
2023/06/08 02:38:39;;;;;;;18.80;16.90;;;;;;;12.86;100.00;98909.17;109396;1254;59099;-70
2023/06/08 02:41:06;;;;;;;17.10;15.60;;;;;;;12.87;100.00;98907.81;109393;1254;63743;-70
2023/06/08 02:43:33;;;;;;;17.00;15.30;;;;;;;12.90;100.00;98911.35;109396;1254;59091;-70
2023/06/08 02:45:59;;;;;;;19.20;17.40;;;;;;;12.95;100.00;98914.69;109402;1254;59078;-70
2023/06/08 02:48:26;;;;;;;16.50;14.50;;;;;;;12.99;100.00;98914.73;109394;1253;59044;-70
2023/06/08 02:50:52;;;;;;;16.90;15.10;;;;;;;13.00;100.00;98919.14;109391;1253;59026;-69
2023/06/08 02:53:18;;;;;;;17.60;16.00;;;;;;;13.05;100.00;98921.41;109410;1254;59034;-69
2023/06/08 02:55:45;;;;;;;19.30;17.40;;;;;;;13.13;100.00;98923.46;109409;1254;59060;-70
2023/06/08 02:58:11;;;;;;;17.90;16.20;;;;;;;13.20;100.00;98922.04;109403;1254;58928;-71
2023/06/08 03:00:38;;;;;;;19.60;17.60;;;;;;;13.25;100.00;98921.45;109404;1253;59054;-70
2023/06/08 03:03:04;;;;;;;20.20;17.80;;;;;;;13.30;100.00;98925.15;109430;1254;59144;-69
2023/06/08 03:05:34;;;;;;;26.40;18.80;;;;;;;13.34;100.00;98922.72;109381;1253;59124;-70
2023/06/08 03:08:01;;;;;;;31.50;20.90;;;;;;;13.40;100.00;98921.35;109380;1253;59058;-70
2023/06/08 03:10:27;;;;;;;29.90;22.20;;;;;;;13.48;100.00;98922.88;109149;1254;59100;-70
2023/06/08 03:12:53;;;;;;;31.70;20.50;;;;;;;13.57;100.00;98922.65;109387;1253;66105;-69
2023/06/08 03:15:25;;;;;;;31.60;20.30;;;;;;;13.67;100.00;98925.77;109415;1253;58987;-69
2023/06/08 03:17:51;;;;;;;34.80;22.60;;;;;;;13.76;100.00;98923.60;109370;1254;63806;-70
2023/06/08 03:20:18;;;;;;;32.30;22.70;;;;;;;13.86;100.00;98925.70;109364;1254;59043;-70
2023/06/08 03:22:46;;;;;;;32.80;22.60;;;;;;;13.95;100.00;98925.68;109362;1254;58957;-70
2023/06/08 03:25:15;;;;;;;39.90;23.50;;;;;;;14.02;100.00;98928.44;109393;1254;64447;-69
2023/06/08 03:27:42;;;;;;;46.30;24.30;;;;;;;14.09;100.00;98927.17;109428;1253;59389;-70
2023/06/08 03:30:10;;;;;;;55.50;25.30;;;;;;;14.16;100.00;98928.54;109365;1254;64078;-70
2023/06/08 03:32:37;;;;;;;47.60;25.90;;;;;;;14.23;100.00;98926.52;109061;1254;58985;-70
2023/06/08 03:35:05;;;;;;;70.80;25.30;;;;;;;14.32;100.00;98923.69;109424;1254;58866;-69
2023/06/08 03:37:31;;;;;;;75.30;26.60;;;;;;;14.41;100.00;98924.30;109043;1254;66045;-69
2023/06/08 03:39:57;;;;;;;106.40;24.60;;;;;;;14.52;100.00;98924.11;109421;1254;59004;-69
2023/06/08 03:42:24;;;;;;;128.00;23.20;;;;;;;14.65;100.00;98925.95;109384;1254;59051;-68
2023/06/08 03:44:50;;;;;;;99.10;19.70;;;;;;;14.77;100.00;98923.66;109391;1254;59051;-69
2023/06/08 03:47:18;;;;;;;100.60;20.70;;;;;;;14.89;100.00;98919.56;109400;1254;59090;-70
2023/06/08 03:49:44;;;;;;;84.00;18.40;;;;;;;15.03;100.00;98916.20;109424;1254;64833;-69
2023/06/08 03:52:11;;;;;;;106.70;17.90;;;;;;;15.18;100.00;98914.17;109410;1254;60011;-69
2023/06/08 03:54:38;;;;;;;83.40;17.90;;;;;;;15.32;100.00;98913.67;109375;1254;62810;-69
2023/06/08 03:57:05;;;;;;;75.40;18.80;;;;;;;15.44;100.00;98913.92;109383;1254;59070;-70
2023/06/08 03:59:32;;;;;;;63.50;18.50;;;;;;;15.54;100.00;98912.45;109366;1254;58989;-69
2023/06/08 04:01:58;;;;;;;68.70;18.20;;;;;;;15.64;100.00;98915.86;109392;1254;66239;-69
2023/06/08 04:04:29;;;;;;;68.30;18.10;;;;;;;15.75;100.00;98919.02;109408;1253;59344;-69
2023/06/08 04:07:00;;;;;;;78.10;17.70;;;;;;;15.86;100.00;98912.30;109391;1253;64138;-69
2023/06/08 04:09:28;;;;;;;70.30;16.70;;;;;;;15.99;100.00;98911.73;109405;1254;59335;-69
2023/06/08 04:11:56;;;;;;;125.30;16.10;;;;;;;16.09;100.00;98908.48;109398;1253;58966;-69
2023/06/08 04:14:23;;;;;;;100.60;16.30;;;;;;;16.18;100.00;98909.44;109381;1254;65873;-69
2023/06/08 04:16:49;;;;;;;80.40;14.80;;;;;;;16.28;100.00;98908.33;109392;1254;59786;-70
2023/06/08 04:19:16;;;;;;;88.70;14.10;;;;;;;16.31;100.00;98906.61;109358;1254;64066;-70
2023/06/08 04:21:42;;;;;;;80.30;16.10;;;;;;;16.37;100.00;98909.81;109385;1253;58997;-70
2023/06/08 04:24:09;;;;;;;53.50;15.70;;;;;;;16.47;100.00;98906.38;109357;1253;59376;-70
2023/06/08 04:26:36;;;;;;;47.60;16.50;;;;;;;16.57;100.00;98912.27;109389;1253;65819;-70
2023/06/08 04:29:03;;;;;;;54.40;16.40;;;;;;;16.58;100.00;98909.32;109380;1253;61495;-69
2023/06/08 04:31:30;;;;;;;60.30;16.40;;;;;;;16.54;100.00;98906.80;109388;1253;64133;-69
2023/06/08 04:33:57;;;;;;;53.30;21.50;;;;;;;16.53;100.00;98911.02;109371;1254;59239;-69
2023/06/08 04:36:23;;;;;;;65.90;24.00;;;;;;;16.48;100.00;98911.53;109385;1253;59017;-69
2023/06/08 04:38:50;;;;;;;58.80;23.50;;;;;;;16.43;100.00;98909.08;109403;1253;59377;-69
2023/06/08 04:41:18;;;;;;;52.90;21.70;;;;;;;16.43;100.00;98912.67;109377;1253;59855;-70
2023/06/08 04:43:45;;;;;;;53.60;21.90;;;;;;;16.46;100.00;98910.60;109356;1254;64075;-70
2023/06/08 04:46:12;;;;;;;46.60;21.60;;;;;;;16.58;100.00;98911.65;109096;1254;59073;-69
2023/06/08 04:48:39;;;;;;;43.60;22.50;;;;;;;16.69;100.00;98911.14;109401;1253;59239;-69
2023/06/08 04:51:09;;;;;;;48.40;21.50;;;;;;;16.78;100.00;98914.10;109369;1253;66088;-69
2023/06/08 04:53:37;;;;;;;48.00;23.30;;;;;;;16.82;100.00;98913.59;109397;1253;60584;-69
2023/06/08 04:56:05;;;;;;;49.20;23.30;;;;;;;16.90;100.00;98914.48;109450;1253;62895;-69
2023/06/08 04:58:32;;;;;;;48.10;23.50;;;;;;;16.98;100.00;98911.52;109359;1254;59292;-69
2023/06/08 05:00:59;;;;;;;43.50;23.00;;;;;;;17.08;100.00;98910.59;109369;1253;59066;-70
2023/06/08 05:03:26;;;;;;;31.40;20.20;;;;;;;17.20;100.00;98910.83;109411;1253;66209;-70
2023/06/08 05:05:54;;;;;;;27.90;17.70;;;;;;;17.36;100.00;98911.32;109369;1254;59858;-69
2023/06/08 05:08:20;;;;;;;21.20;16.30;;;;;;;17.60;100.00;98910.91;109384;1253;62648;-70
2023/06/08 05:10:47;;;;;;;18.50;14.90;;;;;;;17.91;100.00;98908.27;109402;1253;58958;-71
2023/06/08 05:13:13;;;;;;;19.70;14.80;;;;;;;18.23;100.00;98913.26;109351;1253;59130;-69
2023/06/08 05:15:40;;;;;;;17.10;14.80;;;;;;;18.48;100.00;98912.69;109404;1253;65752;-70
2023/06/08 05:18:06;;;;;;;18.00;15.00;;;;;;;18.66;100.00;98913.45;109433;1253;59010;-70
2023/06/08 05:20:33;;;;;;;16.40;14.70;;;;;;;18.84;100.00;98914.77;109356;1253;63748;-70
2023/06/08 05:23:00;;;;;;;16.10;14.40;;;;;;;19.09;100.00;98916.97;109354;1253;59525;-70
2023/06/08 05:25:26;;;;;;;17.20;15.40;;;;;;;19.18;100.00;98920.54;109389;1253;58971;-69
2023/06/08 05:27:53;;;;;;;16.70;15.00;;;;;;;19.28;100.00;98925.55;109368;1253;65735;-70
2023/06/08 05:30:20;;;;;;;16.40;14.70;;;;;;;19.57;100.00;98923.66;109351;1253;59099;-70
2023/06/08 05:32:47;;;;;;;14.40;12.30;;;;;;;19.99;100.00;98922.05;109385;1253;62658;-69
2023/06/08 05:35:13;;;;;;;15.00;13.20;;;;;;;20.48;100.00;98920.36;109067;1254;58958;-70
2023/06/08 05:37:40;;;;;;;13.30;12.00;;;;;;;21.11;100.00;98916.28;109384;1254;59062;-70
2023/06/08 05:40:07;;;;;;;13.30;12.00;;;;;;;22.14;100.00;98913.99;109414;1253;66110;-70
2023/06/08 05:42:34;;;;;;;12.40;11.30;;;;;;;23.01;100.00;98914.60;109376;1253;59873;-69
2023/06/08 05:45:00;;;;;;;12.20;11.10;;;;;;;23.68;100.00;98915.66;109361;1253;59435;-69
2023/06/08 05:47:27;;;;;;;11.90;10.90;;;;;;;23.90;100.00;98916.30;109326;1253;59071;-70
2023/06/08 05:49:53;;;;;;;11.70;10.50;;;;;;;24.17;100.00;98914.60;109379;1253;59049;-69
2023/06/08 05:52:20;;;;;;;14.30;13.10;;;;;;;24.54;100.00;98920.13;109395;1253;59017;-70
2023/06/08 05:54:46;;;;;;;16.30;15.00;;;;;;;24.92;100.00;98922.04;109368;1253;59143;-70
2023/06/08 05:57:13;;;;;;;18.90;17.20;;;;;;;25.27;100.00;98921.04;109389;1253;64215;-70
2023/06/08 05:59:40;;;;;;;16.10;14.80;;;;;;;25.81;100.00;98912.97;109027;1253;59072;-69
2023/06/08 06:02:06;;;;;;;15.80;14.50;;;;;;;26.12;100.00;98917.27;109386;1253;59027;-69
2023/06/08 06:04:34;;;;;;;17.10;15.70;;;;;;;25.88;100.00;98919.19;109344;1253;65995;-70
2023/06/08 06:07:00;;;;;;;13.10;12.10;;;;;;;25.54;100.00;98921.98;109363;1253;61002;-71
2023/06/08 06:09:27;;;;;;;14.10;12.90;;;;;;;25.62;100.00;98923.35;109108;1256;63996;-70
2023/06/08 06:11:53;;;;;;;12.70;11.70;;;;;;;25.26;100.00;98926.77;109347;1253;58921;-70
2023/06/08 06:14:20;;;;;;;11.10;10.20;;;;;;;25.12;100.00;98924.19;109352;1253;58943;-70
2023/06/08 06:16:46;;;;;;;11.30;10.40;;;;;;;25.83;100.00;98923.84;109397;1253;59475;-70
2023/06/08 06:19:13;;;;;;;8.60;7.90;;;;;;;26.45;100.00;98922.84;109366;1253;59036;-70
2023/06/08 06:21:40;;;;;;;7.10;6.50;;;;;;;26.66;100.00;98925.55;109388;1253;59287;-70
2023/06/08 06:24:07;;;;;;;7.10;6.40;;;;;;;26.17;100.00;98928.65;109364;1253;59018;-70
2023/06/08 06:26:33;;;;;;;6.90;6.30;;;;;;;26.01;100.00;98927.99;109303;1253;59271;-70
2023/06/08 06:29:00;;;;;;;6.90;6.30;;;;;;;26.16;100.00;98928.52;109363;1253;58940;-70
2023/06/08 06:31:26;;;;;;;6.50;6.00;;;;;;;25.80;100.00;98926.20;109387;1253;60237;-70
2023/06/08 06:33:53;;;;;;;6.90;6.40;;;;;;;25.60;100.00;98929.64;109395;1253;62815;-70
2023/06/08 06:36:19;;;;;;;5.80;5.40;;;;;;;25.61;100.00;98928.89;109350;1253;59030;-70
2023/06/08 06:38:46;;;;;;;5.80;5.40;;;;;;;25.96;100.00;98927.05;109373;1253;59400;-70
2023/06/08 06:41:13;;;;;;;5.70;5.20;;;;;;;26.03;100.00;98924.89;109093;1253;144737;-70
2023/06/08 06:43:39;;;;;;;6.30;5.80;;;;;;;26.12;100.00;98929.71;109402;1253;60118;-71
2023/06/08 06:46:06;;;;;;;5.40;5.00;;;;;;;25.90;100.00;98930.25;109311;1253;62927;-70
2023/06/08 06:48:32;;;;;;;6.30;5.90;;;;;;;26.19;100.00;98926.16;109034;1253;59554;-71
2023/06/08 06:50:59;;;;;;;6.70;6.10;;;;;;;26.46;100.00;98923.98;109386;1253;58974;-70
2023/06/08 06:53:26;;;;;;;5.60;5.20;;;;;;;26.52;100.00;98922.71;109091;1253;65801;-70
2023/06/08 06:55:52;;;;;;;4.70;4.40;;;;;;;26.46;100.00;98923.77;109339;1253;60179;-70
2023/06/08 06:58:20;;;;;;;5.50;5.10;;;;;;;26.20;100.00;98927.09;109338;1253;59035;-70
2023/06/08 07:00:46;;;;;;;6.00;5.40;;;;;;;26.03;100.00;98926.56;109080;1253;59011;-70
2023/06/08 07:03:13;;;;;;;6.00;5.50;;;;;;;25.99;100.00;98927.05;109331;1253;59224;-70
2023/06/08 07:05:39;;;;;;;6.10;5.60;;;;;;;25.70;100.00;98929.20;109391;1253;64543;-69
2023/06/08 07:08:06;;;;;;;6.00;5.60;;;;;;;25.59;100.00;98926.79;109351;1253;60991;-71
2023/06/08 07:10:32;;;;;;;6.10;5.60;;;;;;;26.05;100.00;98921.14;109062;1253;62501;-71
2023/06/08 07:12:59;;;;;;;5.80;5.40;;;;;;;26.50;100.00;98921.89;109337;1253;59256;-71
2023/06/08 07:15:27;;;;;;;5.40;5.00;;;;;;;26.64;100.00;98924.75;109386;1253;59038;-71
2023/06/08 07:17:53;;;;;;;5.90;5.50;;;;;;;26.69;100.00;98928.45;109374;1253;66194;-71
2023/06/08 07:20:20;;;;;;;5.40;5.00;;;;;;;26.59;100.00;98923.98;109334;1253;59020;-71
2023/06/08 07:22:46;;;;;;;6.00;5.60;;;;;;;26.31;100.00;98927.46;109367;1253;62869;-71
2023/06/08 07:25:13;;;;;;;5.70;5.30;;;;;;;25.83;100.00;98931.16;109388;1253;59126;-71
2023/06/08 07:27:40;;;;;;;6.00;5.60;;;;;;;25.53;100.00;98932.09;109396;1253;59017;-71
2023/06/08 07:30:08;;;;;;;5.20;4.80;;;;;;;25.83;100.00;98929.20;109362;1253;64833;-71
2023/06/08 07:32:35;;;;;;;5.70;5.30;;;;;;;26.11;100.00;98930.14;109396;1253;60081;-71
2023/06/08 07:35:04;;;;;;;5.60;5.10;;;;;;;25.96;100.00;98930.90;109370;1253;64050;-71
2023/06/08 07:37:30;;;;;;;6.00;5.60;;;;;;;25.72;100.00;98932.06;109356;1253;58921;-72
2023/06/08 07:39:57;;;;;;;6.70;6.20;;;;;;;25.38;100.00;98937.11;109388;1253;59128;-71
2023/06/08 07:42:23;;;;;;;5.80;5.30;;;;;;;24.97;100.00;98936.77;109382;1253;58980;-72
2023/06/08 07:44:50;;;;;;;5.40;5.00;;;;;;;24.92;100.00;98934.79;109359;1253;59850;-72
2023/06/08 07:47:17;;;;;;;5.80;5.40;;;;;;;25.10;100.00;98932.27;109377;1253;64192;-71
2023/06/08 07:49:43;;;;;;;5.50;5.10;;;;;;;25.27;100.00;98931.84;109015;1253;59109;-71
2023/06/08 07:52:10;;;;;;;5.40;4.90;;;;;;;24.91;100.00;98934.91;109395;1253;59094;-71
2023/06/08 07:54:37;;;;;;;5.80;5.30;;;;;;;24.42;100.00;98939.36;109392;1253;66010;-72
2023/06/08 07:57:03;;;;;;;5.50;5.10;;;;;;;24.17;100.00;98936.17;109386;1253;59047;-71
2023/06/08 07:59:30;;;;;;;5.50;5.10;;;;;;;24.11;100.00;98936.52;109379;1253;62817;-71
2023/06/08 08:01:57;;;;;;;5.70;5.30;;;;;;;23.88;100.00;98936.19;109347;1253;58936;-71
2023/06/08 08:04:23;;;;;;;6.20;5.70;;;;;;;23.64;100.00;98938.67;109403;1253;58905;-71
2023/06/08 08:06:50;;;;;;;6.40;5.90;;;;;;;23.90;100.00;98937.14;109385;1253;64663;-72
2023/06/08 08:09:16;;;;;;;5.80;5.40;;;;;;;24.16;100.00;98935.42;109357;1253;58944;-71
2023/06/08 08:11:43;;;;;;;5.40;5.00;;;;;;;24.21;100.00;98940.77;109364;1253;62769;-72
2023/06/08 08:14:10;;;;;;;6.00;5.50;;;;;;;24.02;100.00;98937.92;109429;1253;59038;-71
2023/06/08 08:16:37;;;;;;;5.20;4.80;;;;;;;23.84;100.00;98935.32;109374;1253;59070;-72
2023/06/08 08:19:04;;;;;;;4.50;4.10;;;;;;;23.59;100.00;98931.52;109399;1253;66114;-71
2023/06/08 08:21:31;;;;;;;5.40;4.90;;;;;;;23.50;100.00;98929.00;109412;1253;60134;-72
2023/06/08 08:23:57;;;;;;;5.40;5.00;;;;;;;23.44;100.00;98930.75;109406;1253;63311;-73
2023/06/08 08:26:24;;;;;;;5.00;4.70;;;;;;;23.55;100.00;98926.15;109346;1253;59230;-72
2023/06/08 08:28:50;;;;;;;5.20;4.80;;;;;;;23.77;100.00;98921.91;109406;1253;59045;-72
2023/06/08 08:31:17;;;;;;;5.20;4.80;;;;;;;23.94;100.00;98926.56;109427;1253;64856;-72
2023/06/08 08:33:43;;;;;;;5.60;4.70;;;;;;;23.95;100.00;98928.92;109392;1253;59054;-71
2023/06/08 08:36:10;;;;;;;5.90;5.50;;;;;;;23.88;100.00;98925.83;109391;1253;62907;-71
2023/06/08 08:38:38;;;;;;;5.70;5.30;;;;;;;23.78;100.00;98927.94;109067;1253;59117;-72
2023/06/08 08:41:08;;;;;;;6.30;5.80;;;;;;;23.61;100.00;98932.50;109388;1253;58870;-70
2023/06/08 08:43:57;;;;;;;6.70;6.20;;;;;;;23.53;100.00;98929.77;109365;1254;65744;-71
2023/06/08 08:46:25;;;;;;;7.70;7.00;;;;;;;23.64;100.00;98927.13;109369;1253;60270;-72
2023/06/08 08:48:58;;;;;;;8.00;7.20;;;;;;;23.57;100.00;98923.53;109389;1253;63877;-72
2023/06/08 08:51:25;;;;;;;7.80;7.10;;;;;;;23.55;100.00;98929.53;109119;1253;59025;-71
2023/06/08 08:53:52;;;;;;;7.30;6.60;;;;;;;23.72;100.00;98925.30;109371;1253;59018;-71
2023/06/08 08:56:25;;;;;;;6.70;6.20;;;;;;;23.72;100.00;98921.27;109038;1253;64924;-72
2023/06/08 08:58:52;;;;;;;6.40;5.90;;;;;;;23.67;100.00;98920.36;109385;1253;60626;-72
2023/06/08 09:01:20;;;;;;;6.50;6.00;;;;;;;23.63;100.00;98924.75;109387;1253;64076;-71
2023/06/08 09:03:46;;;;;;;6.50;6.00;;;;;;;23.62;100.00;98929.33;109378;1253;59451;-72
2023/06/08 09:06:13;;;;;;;6.30;5.80;;;;;;;23.61;100.00;98923.50;109379;1253;59440;-70
2023/06/08 09:08:40;;;;;;;6.80;6.00;;;;;;;23.69;100.00;98919.22;109074;1253;66040;-72
2023/06/08 09:11:09;;;;;;;6.80;6.30;;;;;;;23.74;100.00;98913.95;109358;1253;60433;-72
2023/06/08 09:13:38;;;;;;;6.70;6.20;;;;;;;23.80;100.00;98919.69;109383;1253;63782;-71
2023/06/08 09:16:14;;;;;;;6.90;6.30;;;;;;;24.06;100.00;98919.25;109109;1253;59342;-71
2023/06/08 09:18:42;;;;;;;6.40;5.80;;;;;;;24.46;100.00;98918.18;109401;1253;59358;-71
2023/06/08 09:21:27;;;;;;;6.90;6.30;;;;;;;24.65;100.00;98920.05;109373;1253;64868;-71
2023/06/08 09:24:07;;;;;;;7.10;6.50;;;;;;;24.66;100.00;98922.07;109396;1253;60181;-72
2023/06/08 09:26:33;;;;;;;;;;;;;;;24.74;100.00;98917.91;109211;1253;65077;-73
2023/06/08 09:29:01;;;;;;;9.50;8.60;;;;;;;24.78;100.00;98918.48;109361;1253;58964;-70
2023/06/08 09:31:31;;;;;;;8.00;7.30;;;;;;;24.86;100.00;98915.73;109406;1253;59030;-71
2023/06/08 09:34:08;;;;;;;;;;;;;;;25.05;100.00;98912.24;109372;1253;64896;-71
2023/06/08 09:36:37;;;;;;;6.70;6.10;;;;;;;25.40;100.00;98908.38;109428;1253;58996;-71
2023/06/08 09:39:05;;;;;;;6.80;6.20;;;;;;;25.76;100.00;98904.59;109054;1253;63749;-71
2023/06/08 09:41:33;;;;;;;7.00;6.40;;;;;;;25.88;100.00;98902.09;109378;1253;58817;-72
2023/06/08 09:44:00;;;;;;;6.80;6.40;;;;;;;25.76;100.00;98897.48;109402;1253;59200;-71
2023/06/08 09:46:48;;;;;;;7.70;7.00;;;;;;;25.88;100.00;98897.77;109419;1253;66223;-71
2023/06/08 09:49:16;;;;;;;6.90;6.40;;;;;;;26.16;100.00;98897.03;109369;1253;59831;-71
2023/06/08 09:51:51;;;;;;;6.90;6.40;;;;;;;26.50;100.00;98896.87;109085;1253;64045;-72
2023/06/08 09:54:20;;;;;;;8.00;7.30;;;;;;;26.81;99.54;98897.21;109385;1253;58994;-72
2023/06/08 09:56:55;;;;;;;8.10;7.50;;;;;;;26.79;97.04;98895.20;109413;1253;59033;-71
2023/06/08 09:59:36;;;;;;;7.70;6.90;;;;;;;26.67;97.48;98892.74;109367;1253;65331;-72
2023/06/08 10:02:24;;;;;;;8.60;7.80;;;;;;;26.59;97.48;98893.20;109437;1253;67756;-71
2023/06/08 10:04:55;;;;;;;8.40;7.70;;;;;;;26.45;97.74;98889.50;109394;1253;62551;-72
2023/06/08 10:07:25;;;;;;;7.90;7.20;;;;;;;26.27;95.77;98888.98;109197;1253;58872;-70
2023/06/08 10:10:05;;;;;;;7.30;6.80;;;;;;;25.91;94.52;98893.48;109402;1253;58969;-71
2023/06/08 10:12:32;;;;;;;;;;;;;;;25.59;95.33;98884.92;109170;1253;65743;-71
2023/06/08 10:15:00;;;;;;;8.20;7.60;;;;;;;25.22;95.74;98885.41;109405;1253;58978;-71
2023/06/08 10:17:29;;;;;;;7.90;7.20;;;;;;;25.04;97.72;98885.98;109141;1253;64629;-71
2023/06/08 10:19:56;;;;;;;8.30;7.50;;;;;;;25.04;98.29;98884.59;109370;1253;59033;-71
2023/06/08 10:22:23;;;;;;;7.00;6.50;;;;;;;24.99;98.21;98887.45;109427;1253;59023;-71
2023/06/08 10:24:51;;;;;;;7.40;6.80;;;;;;;24.91;98.75;98885.46;109383;1253;65869;-71
2023/06/08 10:27:37;;;;;;;8.40;7.80;;;;;;;24.96;99.34;98883.65;109416;1253;59069;-72
2023/06/08 10:30:06;;;;;;;7.70;7.00;;;;;;;25.12;99.50;98881.34;109390;1253;62931;-71
2023/06/08 10:32:36;;;;;;;8.70;7.90;;;;;;;25.33;99.69;98874.34;109377;1254;58970;-71
2023/06/08 10:35:05;;;;;;;7.80;7.20;;;;;;;25.47;99.03;98873.27;109417;1253;58916;-71
2023/06/08 10:37:34;;;;;;;8.70;8.00;;;;;;;25.38;98.97;98875.36;108981;1253;65954;-71
2023/06/08 10:40:10;;;;;;;9.50;8.70;;;;;;;25.39;99.98;98873.36;109402;1253;60137;-72
2023/06/08 10:42:49;;;;;;;10.50;9.50;;;;;;;25.39;99.94;98875.91;109401;1253;63765;-72
2023/06/08 10:45:16;;;;;;;10.60;9.80;;;;;;;25.43;100.00;98875.10;109363;1253;59232;-70
2023/06/08 10:47:42;;;;;;;11.00;10.10;;;;;;;25.56;99.90;98881.77;109184;1253;59123;-72
2023/06/08 10:50:10;;;;;;;10.40;9.60;;;;;;;25.69;99.88;98880.90;109412;1253;65805;-72
2023/06/08 10:52:44;;;;;;;12.10;11.00;;;;;;;26.00;96.52;98876.21;109029;1253;60143;-71
2023/06/08 10:55:16;;;;;;;12.20;11.30;;;;;;;26.50;95.35;98870.92;109188;1253;63813;-71
2023/06/08 10:57:46;;;;;;;12.80;11.80;;;;;;;26.84;92.98;98869.52;109421;1253;59216;-71
2023/06/08 11:00:23;;;;;;;14.10;12.90;;;;;;;27.02;91.65;98865.69;109341;1254;58960;-71
2023/06/08 11:02:50;;;;;;;13.00;11.90;;;;;;;27.03;89.61;98865.02;109364;1253;66110;-71
2023/06/08 11:05:17;;;;;;;13.20;12.20;;;;;;;26.96;89.59;98864.13;109373;1253;60179;-72
2023/06/08 11:07:44;;;;;;;13.50;12.50;;;;;;;26.91;88.67;98859.27;109402;1253;62884;-71
2023/06/08 11:10:10;;;;;;;13.10;12.10;;;;;;;27.02;88.74;98855.42;109392;1253;58976;-72
2023/06/08 11:12:37;;;;;;;12.50;11.60;;;;;;;27.23;89.11;98856.89;109389;1254;58997;-71
2023/06/08 11:15:04;;;;;;;13.00;12.00;;;;;;;27.33;87.33;98849.97;109385;1253;64616;-71